Flight Track Log - Related Links

Times and Time Zones

All times are in EDT time to prevent confusion due to time zone crossing. See the N900CB flight status page for this flight to view local times or setup timezone preferences in your user account.

Time Position Orientation Groundspeed Altitude Reporting Facility
EDT Latitude Longitude Course Direction KTS MPH feet Rate Location/Type
Fri 02:04:33 PM 43.1167 -88.0333 36° Northeast 107 123 1,100  Level KMKE
Fri 02:05:27 PM 43.1500 -88.0000 36° Northeast 121 139 2,000 974 Climbing KMKE
Fri 02:06:30 PM 43.1589 -88.0256 296° West 138 159 3,000 912 Climbing Chicago Center
Fri 02:07:32 PM 43.1644 -88.0792 278° West 142 163 3,900 919 Climbing Chicago Center
Fri 02:08:34 PM 43.1683 -88.1378 275° West 148 170 4,900 1,016 Climbing Chicago Center
Fri 02:09:36 PM 43.1833 -88.1892 292° West 146 168 6,000 1,113 Climbing Chicago Center
Fri 02:10:38 PM 43.2128 -88.2356 311° West 139 160 7,200 1,113 Climbing Chicago Center
Fri 02:11:40 PM 43.2378 -88.2756 311° West 138 159 8,300 968 Climbing Chicago Center
Fri 02:12:42 PM 43.2647 -88.3156 313° West 140 161 9,200 919 Climbing Chicago Center
Fri 02:13:44 PM 43.2933 -88.3539 316° Northwest 143 165 10,200 968 Climbing Chicago Center
Fri 02:14:46 PM 43.3236 -88.3922 317° Northwest 148 170 11,200 919 Climbing Chicago Center
Fri 02:15:48 PM 43.3467 -88.4489 299° West 151 174 12,100 871 Climbing Chicago Center
Fri 02:16:50 PM 43.3644 -88.5044 294° West 155 178 13,000 823 Climbing Chicago Center
Fri 02:17:52 PM 43.3842 -88.5597 296° West 158 182 13,800 435 Climbing Chicago Center
Fri 02:18:54 PM 43.4042 -88.6236 293° West 178 205 13,900 48 Climbing Chicago Center
Fri 02:19:56 PM 43.4258 -88.6883 295° West 185 213 13,900  Level Chicago Center
Fri 02:20:58 PM 43.4469 -88.7533 294° West 184 212 13,900  Level Chicago Center
Fri 02:22:00 PM 43.4678 -88.8169 294° West 183 211 13,900 48 Level Chicago Center
Fri 02:23:02 PM 43.4894 -88.8825 295° West 186 214 14,000 48 Climbing Chicago Center
Fri 02:24:04 PM 43.5139 -88.9558 295° West 182 209 14,000  Level Chicago Center
Fri 02:25:06 PM 43.5353 -89.0197 295° West 183 211 14,000  Level Chicago Center
Fri 02:26:08 PM 43.5567 -89.0869 294° West 188 216 14,000  Level Chicago Center
Fri 02:27:10 PM 43.5761 -89.1536 292° West 188 216 14,000  Level Chicago Center
Fri 02:28:12 PM 43.5958 -89.2197 292° West 187 215 14,000  Level Chicago Center
Fri 02:29:15 PM 43.6211 -89.2967 294° West 186 214 14,000  Level Chicago Center
Fri 02:30:17 PM 43.6422 -89.3628 294° West 188 216 14,000  Level Chicago Center
Fri 02:31:19 PM 43.6625 -89.4292 293° West 188 216 14,000  Level Chicago Center
Fri 02:32:21 PM 43.6833 -89.4967 293° West 189 217 14,000  Level Chicago Center
Fri 02:33:23 PM 43.7033 -89.5642 292° West 190 219 14,000  Level Chicago Center
Fri 02:34:25 PM 43.7294 -89.6431 295° West 192 221 14,000  Level Chicago Center
Fri 02:35:27 PM 43.7508 -89.7111 294° West 192 221 14,000  Level Chicago Center
Fri 02:36:29 PM 43.7733 -89.7775 295° West 192 221 14,000  Level Chicago Center
Fri 02:37:31 PM 43.7942 -89.8456 293° West 191 220 14,000  Level Chicago Center
Fri 02:38:33 PM 43.8158 -89.9136 294° West 192 221 14,000  Level Chicago Center
Fri 02:39:35 PM 43.8392 -89.9925 292° West 191 220 14,000  Level Chicago Center
Fri 02:40:38 PM 43.8608 -90.0606 294° West 192 221 14,000  Level Chicago Center
Fri 02:41:40 PM 43.8803 -90.1283 292° West 191 220 14,000  Level Chicago Center
Fri 02:42:42 PM 43.8994 -90.1975 291° West 191 220 14,000  Level Chicago Center
Fri 02:43:44 PM 43.9200 -90.2642 293° West 190 219 14,000  Level Chicago Center
Fri 02:44:46 PM 43.9397 -90.3286 293° West 188 216 14,000  Level Chicago Center
Fri 02:45:09 PM 43.9461 -90.3483 294° West 185 213 14,000  Level Minneapolis Center
Fri 02:46:12 PM 43.9708 -90.4356 292° West 187 215 14,000  Level Minneapolis Center
Fri 02:47:14 PM 43.9911 -90.5036 293° West 184 212 14,000  Level Minneapolis Center
Fri 02:48:16 PM 44.0117 -90.5689 294° West 189 217 14,000  Level Minneapolis Center
Fri 02:49:18 PM 44.0331 -90.6378 293° West 187 215 14,000  Level Minneapolis Center
Fri 02:50:20 PM 44.0544 -90.7075 293° West 188 216 14,000  Level Minneapolis Center
Fri 02:51:22 PM 44.0750 -90.7775 292° West 186 214 14,000  Level Minneapolis Center
Fri 02:52:24 PM 44.0931 -90.8486 289° West 188 216 14,000  Level Minneapolis Center
Fri 02:53:26 PM 44.1106 -90.9200 289° West 187 215 14,000  Level Minneapolis Center
Fri 02:54:28 PM 44.1289 -90.9908 290° West 187 215 14,000  Level Minneapolis Center
Fri 02:55:30 PM 44.1444 -91.0569 288° West 187 215 14,000  Level Minneapolis Center
Fri 02:56:44 PM 44.1614 -91.1283 288° West 187 215 14,000  Level Minneapolis Center
Fri 02:57:47 PM 44.1822 -91.2167 288° West 186 214 14,000  Level Minneapolis Center
Fri 02:59:01 PM 44.2014 -91.3000 288° West 187 215 14,000 -44 Level Minneapolis Center
Fri 03:00:03 PM 44.2172 -91.3689 288° West 182 209 13,900 -435 Descending Minneapolis Center
Fri 03:01:05 PM 44.2358 -91.4453 289° West 203 234 13,100 -774 Descending Minneapolis Center
Fri 03:02:07 PM 44.2553 -91.5261 289° West 210 242 12,300 -816 Descending Minneapolis Center
Fri 03:03:10 PM 44.2731 -91.6089 287° West 214 246 11,400 -864 Descending Minneapolis Center
Fri 03:04:12 PM 44.2917 -91.6861 289° West 216 249 10,500 -871 Descending Minneapolis Center
Fri 03:05:14 PM 44.3125 -91.7703 289° West 216 249 9,600 -823 Descending Minneapolis Center
Fri 03:06:16 PM 44.3294 -91.8489 287° West 214 246 8,800 -823 Descending Minneapolis Center
Fri 03:07:18 PM 44.3492 -91.9314 289° West 211 243 7,900 -774 Descending Minneapolis Center
Fri 03:08:20 PM 44.3697 -92.0050 291° West 207 238 7,200 -726 Descending Minneapolis Center
Fri 03:09:22 PM 44.3886 -92.0858 288° West 203 234 6,400 -726 Descending Minneapolis Center
Fri 03:10:24 PM 44.4061 -92.1656 287° West 201 231 5,700 -629 Descending Minneapolis Center
Fri 03:11:26 PM 44.4217 -92.2383 287° West 200 230 5,100 -581 Descending Minneapolis Center
Fri 03:12:28 PM 44.4378 -92.3156 286° West 196 226 4,500 -484 Descending Minneapolis Center
Fri 03:13:30 PM 44.4539 -92.3847 288° West 189 217 4,100 -387 Descending Minneapolis Center
Fri 03:14:32 PM 44.4703 -92.4508 289° West 186 214 3,700 -194 Descending Minneapolis Center
Fri 03:15:34 PM 44.4844 -92.5178 287° West 182 209 3,700 97 Level Minneapolis Center
Fri 03:16:36 PM 44.4969 -92.5767 287° West 161 185 3,900 97 Climbing Minneapolis Center
Fri 03:17:38 PM 44.5117 -92.6497 286° West 163 188 3,900  Level Minneapolis Center
Fri 03:18:40 PM 44.5253 -92.7131 287° West 169 194 3,900  Level Minneapolis Center
Fri 03:19:42 PM 44.5400 -92.7756 288° West 169 194 3,900 -145 Level Minneapolis Center
Fri 03:20:44 PM 44.5547 -92.8397 288° West 172 198 3,600 -435 Descending Minneapolis Center
Fri 03:21:46 PM 44.5708 -92.9100 288° West 188 216 3,000 -290 Descending Minneapolis Center
Fri 03:22:48 PM 44.5861 -92.9758 288° West 179 206 3,000  Level Minneapolis Center
Fri 03:23:49 PM 44.6053 -93.0475 291° West 165 190 3,000  Level Minneapolis Center
Fri 03:24:51 PM 44.6336 -93.0978 308° West 165 190 3,000  Level Minneapolis Center
Fri 03:25:53 PM 44.6608 -93.1481 307° West 162 186 3,000 -194 Level Minneapolis Center
Fri 03:26:55 PM 44.6892 -93.1964 310° West 161 185 2,600 -290 Descending Minneapolis Center
Fri 03:27:57 PM 44.7181 -93.2483 308° West 164 189 2,400 -48 Descending Minneapolis Center
Fri 03:28:59 PM 44.7397 -93.2992 301° West 150 173 2,500  Climbing Minneapolis Center
Fri 03:30:01 PM 44.7647 -93.3456 307° West 148 170 2,400 -244 Descending Minneapolis Center
Fri 03:31:02 PM 44.7894 -93.3928 306° West 150 173 2,000 -244 Descending Minneapolis Center
Fri 03:32:04 PM 44.8053 -93.4453 293° West 145 167 1,900 -242 Descending Minneapolis Center
Fri 03:33:06 PM 44.8239 -93.4936 299° West 128 147 1,500 -484 Descending Minneapolis Center
Fri 03:34:08 PM 44.8297 -93.4642 74° East 114 131 900 -581 Descending Minneapolis Center
Fri 03:36:00 PM 44.8275 -93.4586 North  Level Estimated

Login

Don't have an account? Register now (free) for customized features, flight alerts, and more!